createdAt,value
2022-11-02T00:00:10.762Z,84.80
2022-11-02T00:01:10.987Z,84.90
2022-11-02T00:02:11.347Z,84.90
2022-11-02T00:03:11.654Z,84.90
2022-11-02T00:04:11.881Z,84.80
2022-11-02T00:05:12.081Z,84.69
2022-11-02T00:06:12.442Z,84.49
2022-11-02T00:07:12.681Z,84.39
2022-11-02T00:08:13.011Z,84.18
2022-11-02T00:09:13.330Z,84.18
2022-11-02T00:10:13.593Z,84.18
2022-11-02T00:11:13.920Z,84.18
2022-11-02T00:12:14.611Z,84.39
2022-11-02T00:13:14.447Z,84.39
2022-11-02T00:14:14.767Z,84.49
2022-11-02T00:15:15.126Z,84.49
2022-11-02T00:16:15.380Z,84.69
2022-11-02T00:17:16.078Z,84.69
2022-11-02T00:18:15.942Z,84.69
2022-11-02T00:19:16.225Z,84.69
2022-11-02T00:20:16.552Z,84.49
2022-11-02T00:21:16.864Z,84.49
2022-11-02T00:22:17.524Z,84.59
2022-11-02T00:23:17.536Z,84.59
2022-11-02T00:24:17.849Z,84.59
2022-11-02T00:25:18.165Z,84.49
2022-11-02T00:26:18.407Z,84.39
2022-11-02T00:27:18.702Z,84.28
2022-11-02T00:28:19.140Z,84.28
2022-11-02T00:29:19.424Z,84.28
2022-11-02T00:30:19.622Z,84.39
2022-11-02T00:31:19.823Z,84.18
2022-11-02T00:32:20.183Z,84.28
2022-11-02T00:33:20.497Z,84.49
2022-11-02T00:34:20.839Z,84.49
2022-11-02T00:35:21.140Z,84.49
2022-11-02T00:36:21.372Z,84.28
2022-11-02T00:37:21.786Z,84.18
2022-11-02T00:38:21.963Z,84.28
2022-11-02T00:39:22.274Z,84.08
2022-11-02T00:40:22.571Z,83.98
2022-11-02T00:41:22.856Z,83.98
2022-11-02T00:42:23.170Z,83.78
2022-11-02T00:43:23.384Z,83.67
2022-11-02T00:44:23.692Z,83.57
2022-11-02T00:45:23.957Z,83.57
2022-11-02T00:46:24.268Z,83.47
2022-11-02T00:47:24.645Z,83.37
2022-11-02T00:48:25.022Z,83.33
2022-11-02T00:49:25.212Z,83.23
2022-11-02T00:50:25.510Z,83.02
2022-11-02T00:51:25.795Z,83.02
2022-11-02T00:52:26.123Z,82.92
2022-11-02T00:53:26.447Z,82.92
2022-11-02T00:54:28.575Z,82.92
2022-11-02T00:55:27.074Z,82.92
2022-11-02T00:56:27.364Z,82.92
2022-11-02T00:57:27.642Z,82.92
2022-11-02T00:58:27.964Z,83.12
2022-11-02T00:59:28.283Z,83.12
2022-11-02T01:00:28.975Z,83.12
2022-11-02T01:01:28.893Z,83.16
2022-11-02T01:02:29.214Z,83.16
2022-11-02T01:03:29.430Z,83.37
2022-11-02T01:04:36.598Z,83.43
2022-11-02T01:05:30.058Z,83.37
2022-11-02T01:06:30.245Z,83.37
2022-11-02T01:07:30.529Z,83.57
2022-11-02T01:08:30.877Z,83.67
2022-11-02T01:09:31.189Z,83.67
2022-11-02T01:10:31.494Z,83.57
2022-11-02T01:11:31.816Z,83.67
2022-11-02T01:12:32.108Z,83.78
2022-11-02T01:13:32.404Z,83.78
2022-11-02T01:14:32.712Z,83.87
2022-11-02T01:15:33.047Z,83.98
2022-11-02T01:16:33.432Z,83.87
2022-11-02T01:17:33.594Z,83.87
2022-11-02T01:18:33.890Z,83.87
2022-11-02T01:19:34.240Z,83.98
2022-11-02T01:20:34.490Z,83.98
2022-11-02T01:21:34.760Z,83.98
2022-11-02T01:22:35.139Z,83.98
2022-11-02T01:23:35.413Z,84.08
2022-11-02T01:24:35.724Z,84.18
2022-11-02T01:25:36.019Z,84.18
2022-11-02T01:26:36.454Z,84.28
2022-11-02T01:27:36.607Z,84.18
2022-11-02T01:28:36.982Z,84.28
2022-11-02T01:29:37.272Z,84.28
2022-11-02T01:30:37.582Z,84.39
2022-11-02T01:31:37.898Z,84.39
2022-11-02T01:32:38.202Z,84.49
2022-11-02T01:33:38.481Z,84.59
2022-11-02T01:34:38.861Z,84.69
2022-11-02T01:35:39.167Z,84.90
2022-11-02T01:36:39.524Z,84.90
2022-11-02T01:37:39.728Z,85.10
2022-11-02T01:38:40.018Z,85.21
2022-11-02T01:39:40.367Z,85.45
2022-11-02T01:40:40.745Z,85.65
2022-11-02T01:41:41.033Z,85.86
2022-11-02T01:42:41.232Z,85.96
2022-11-02T01:43:41.559Z,86.06
2022-11-02T01:44:41.893Z,85.96
2022-11-02T01:45:42.141Z,86.06
2022-11-02T01:46:42.448Z,86.06
2022-11-02T01:47:42.840Z,86.16
2022-11-02T01:48:43.008Z,86.26
2022-11-02T01:49:44.257Z,86.47
2022-11-02T01:50:43.706Z,86.57
2022-11-02T01:51:44.166Z,86.57
2022-11-02T01:52:44.313Z,86.77
2022-11-02T01:53:44.694Z,86.77
2022-11-02T01:54:45.001Z,86.67
2022-11-02T01:55:45.289Z,86.77
2022-11-02T01:56:45.582Z,86.77
2022-11-02T01:57:45.877Z,86.77
2022-11-02T01:58:46.172Z,86.77
2022-11-02T01:59:46.486Z,86.88
2022-11-02T02:00:46.786Z,87.08
2022-11-02T02:01:47.100Z,87.18
2022-11-02T02:02:47.373Z,87.38
2022-11-02T02:03:47.533Z,87.63
2022-11-02T02:04:47.898Z,87.63
2022-11-02T02:05:48.268Z,87.73
2022-11-02T02:06:48.502Z,87.84
2022-11-02T02:07:48.687Z,87.84
2022-11-02T02:08:49.034Z,87.84
2022-11-02T02:09:51.428Z,87.84
2022-11-02T02:10:49.576Z,88.04
2022-11-02T02:11:49.742Z,88.14
2022-11-02T02:12:50.045Z,88.14
2022-11-02T02:13:50.343Z,88.24
2022-11-02T02:14:50.646Z,88.14
2022-11-02T02:15:50.938Z,88.35
2022-11-02T02:16:51.232Z,88.35
2022-11-02T02:17:51.488Z,88.24
2022-11-02T02:18:51.764Z,88.24
2022-11-02T02:19:52.034Z,88.04
2022-11-02T02:20:52.474Z,88.00
2022-11-02T02:21:52.680Z,88.00
2022-11-02T02:22:52.976Z,88.04
2022-11-02T02:23:53.290Z,88.24
2022-11-02T02:24:53.562Z,88.55
2022-11-02T02:25:53.870Z,88.35
2022-11-02T02:26:54.202Z,88.45
2022-11-02T02:27:54.552Z,88.24
2022-11-02T02:28:54.850Z,88.24
2022-11-02T02:29:55.000Z,88.14
2022-11-02T02:30:55.394Z,88.24
2022-11-02T02:31:55.570Z,88.35
2022-11-02T02:32:55.908Z,88.35
2022-11-02T02:33:56.134Z,88.45
2022-11-02T02:34:56.461Z,88.45
2022-11-02T02:35:56.876Z,88.35
2022-11-02T02:36:57.092Z,88.55
2022-11-02T02:37:57.422Z,88.45
2022-11-02T02:38:58.676Z,88.45
2022-11-02T02:39:57.989Z,88.35
2022-11-02T02:40:58.289Z,88.35
2022-11-02T02:41:58.591Z,88.35
2022-11-02T02:42:58.957Z,88.45
2022-11-02T02:43:59.153Z,88.45
2022-11-02T02:44:59.487Z,88.35
2022-11-02T02:45:59.772Z,88.35
2022-11-02T02:47:00.119Z,88.35
2022-11-02T02:48:00.479Z,88.35
2022-11-02T02:49:00.661Z,88.24
2022-11-02T02:50:01.046Z,88.24
2022-11-02T02:51:01.331Z,88.14
2022-11-02T02:52:01.699Z,88.14
2022-11-02T02:53:01.982Z,88.24
2022-11-02T02:54:02.339Z,88.14
2022-11-02T02:55:02.624Z,88.14
2022-11-02T02:56:02.981Z,88.04
2022-11-02T02:57:03.706Z,88.04
2022-11-02T02:58:04.096Z,87.94
2022-11-02T02:59:03.864Z,87.84
2022-11-02T03:00:04.199Z,87.59
2022-11-02T03:01:04.418Z,87.53
2022-11-02T03:02:04.833Z,87.63
2022-11-02T03:03:05.039Z,87.63
2022-11-02T03:04:05.350Z,87.73
2022-11-02T03:05:05.674Z,87.63
2022-11-02T03:06:05.990Z,87.84
2022-11-02T03:07:06.376Z,87.84
2022-11-02T03:08:06.820Z,87.73
2022-11-02T03:09:06.818Z,87.94
2022-11-02T03:10:07.250Z,87.84
2022-11-02T03:11:07.660Z,87.84
2022-11-02T03:12:07.821Z,87.94
2022-11-02T03:13:08.024Z,87.94
2022-11-02T03:14:08.330Z,87.84
2022-11-02T03:15:08.618Z,87.84
2022-11-02T03:16:08.958Z,87.84
2022-11-02T03:17:09.260Z,87.84
2022-11-02T03:18:09.532Z,87.84
2022-11-02T03:19:09.848Z,87.84
2022-11-02T03:20:10.232Z,87.73
2022-11-02T03:21:10.515Z,87.84
2022-11-02T03:22:10.939Z,87.84
2022-11-02T03:23:11.085Z,87.94
2022-11-02T03:24:11.420Z,88.04
2022-11-02T03:25:12.150Z,88.14
2022-11-02T03:26:12.035Z,88.14
2022-11-02T03:27:12.326Z,88.04
2022-11-02T03:28:12.625Z,87.94
2022-11-02T03:29:12.939Z,87.84
2022-11-02T03:30:13.209Z,87.84
2022-11-02T03:31:13.566Z,87.73
2022-11-02T03:32:13.857Z,87.70
2022-11-02T03:33:14.202Z,87.63
2022-11-02T03:34:14.523Z,87.73
2022-11-02T03:35:14.959Z,87.84
2022-11-02T03:36:15.111Z,87.73
2022-11-02T03:37:15.428Z,87.73
2022-11-02T03:38:15.664Z,87.70
2022-11-02T03:39:16.034Z,87.70
2022-11-02T03:40:16.354Z,87.70
2022-11-02T03:41:16.703Z,87.49
2022-11-02T03:42:17.009Z,87.38
2022-11-02T03:43:17.204Z,87.38
2022-11-02T03:44:17.509Z,87.38
2022-11-02T03:45:17.775Z,87.38
2022-11-02T03:46:18.177Z,87.49
2022-11-02T03:47:18.383Z,87.73
2022-11-02T03:48:18.655Z,87.84
2022-11-02T03:49:18.978Z,87.84
2022-11-02T03:50:19.219Z,87.79
2022-11-02T03:51:19.602Z,87.79
2022-11-02T03:52:19.882Z,87.70
2022-11-02T03:53:21.065Z,87.59
2022-11-02T03:54:20.524Z,87.49
2022-11-02T03:55:20.809Z,87.59
2022-11-02T03:56:21.083Z,87.59
2022-11-02T03:57:21.426Z,87.70
2022-11-02T03:58:21.798Z,87.70
2022-11-02T03:59:22.113Z,87.70
2022-11-02T04:00:22.405Z,87.79
2022-11-02T04:01:22.779Z,87.84
2022-11-02T04:02:23.104Z,87.90
2022-11-02T04:03:23.343Z,87.79
2022-11-02T04:04:23.627Z,87.79
2022-11-02T04:05:23.933Z,88.14
2022-11-02T04:06:24.284Z,88.14
2022-11-02T04:07:24.478Z,88.10
2022-11-02T04:08:24.786Z,87.90
2022-11-02T04:09:25.080Z,87.79
2022-11-02T04:10:25.411Z,87.90
2022-11-02T04:11:25.695Z,87.79
2022-11-02T04:12:26.021Z,87.70
2022-11-02T04:13:26.432Z,87.59
2022-11-02T04:14:26.610Z,87.59
2022-11-02T04:15:26.883Z,87.49
2022-11-02T04:16:28.338Z,87.49
2022-11-02T04:17:27.631Z,87.29
2022-11-02T04:18:27.849Z,87.24
2022-11-02T04:19:28.145Z,87.18
2022-11-02T04:20:28.456Z,87.38
2022-11-02T04:21:28.770Z,87.49
2022-11-02T04:22:29.118Z,87.24
2022-11-02T04:23:29.386Z,87.14
2022-11-02T04:24:29.710Z,87.24
2022-11-02T04:25:30.120Z,87.14
2022-11-02T04:26:30.318Z,87.04
2022-11-02T04:27:30.637Z,86.94
2022-11-02T04:28:30.817Z,86.94
2022-11-02T04:29:31.144Z,86.83
2022-11-02T04:30:31.446Z,86.94
2022-11-02T04:31:31.750Z,86.83
2022-11-02T04:32:32.062Z,86.33
2022-11-02T04:33:32.374Z,86.02
2022-11-02T04:34:32.689Z,85.92
2022-11-02T04:35:33.006Z,85.71
2022-11-02T04:36:33.250Z,85.71
2022-11-02T04:37:33.539Z,85.57
2022-11-02T04:38:33.863Z,85.57
2022-11-02T04:39:34.166Z,85.47
2022-11-02T04:40:34.484Z,85.16
2022-11-02T04:41:34.789Z,85.16
2022-11-02T04:42:35.098Z,85.06
2022-11-02T04:43:35.476Z,84.86
2022-11-02T04:44:35.644Z,84.86
2022-11-02T04:45:35.953Z,84.86
2022-11-02T04:46:36.250Z,84.75
2022-11-02T04:47:37.011Z,84.86
2022-11-02T04:48:36.883Z,84.96
2022-11-02T04:49:37.183Z,84.75
2022-11-02T04:50:37.525Z,84.75
2022-11-02T04:51:37.823Z,84.75
2022-11-02T04:52:38.182Z,84.75
2022-11-02T04:53:38.470Z,84.75
2022-11-02T04:54:38.860Z,84.66
2022-11-02T04:55:39.206Z,84.41
2022-11-02T04:56:39.496Z,84.41
2022-11-02T04:58:40.031Z,84.31
2022-11-02T04:59:40.241Z,84.00
2022-11-02T05:00:40.585Z,84.11
2022-11-02T05:01:40.938Z,84.00
2022-11-02T05:02:41.246Z,84.11
2022-11-02T05:03:41.405Z,84.00
2022-11-02T05:04:41.735Z,84.00
2022-11-02T05:05:42.086Z,84.11
2022-11-02T05:06:42.397Z,84.00
2022-11-02T05:07:42.704Z,84.11
2022-11-02T05:08:42.978Z,84.20
2022-11-02T05:09:43.234Z,84.11
2022-11-02T05:10:43.412Z,84.00
2022-11-02T05:11:43.808Z,83.90
2022-11-02T05:12:43.962Z,83.90
2022-11-02T05:13:44.275Z,83.90
2022-11-02T05:14:44.562Z,84.00
2022-11-02T05:15:44.850Z,83.80
2022-11-02T05:16:45.184Z,83.90
2022-11-02T05:17:45.495Z,83.90
2022-11-02T05:18:45.772Z,84.00
2022-11-02T05:19:46.069Z,84.20
2022-11-02T05:20:46.446Z,84.11
2022-11-02T05:21:46.645Z,84.00
2022-11-02T05:22:46.973Z,83.80
2022-11-02T05:23:47.260Z,83.56
2022-11-02T05:24:47.462Z,83.45
2022-11-02T05:25:47.779Z,83.45
2022-11-02T05:26:52.843Z,83.35
2022-11-02T05:27:49.266Z,83.35
2022-11-02T05:28:48.667Z,83.56
2022-11-02T05:29:48.866Z,83.70
2022-11-02T05:30:49.167Z,83.76
2022-11-02T05:31:49.446Z,83.76
2022-11-02T05:32:49.774Z,83.76
2022-11-02T05:33:50.072Z,83.90
2022-11-02T05:34:50.498Z,84.11
2022-11-02T05:35:50.790Z,84.11
2022-11-02T05:36:51.138Z,84.20
2022-11-02T05:37:51.322Z,84.20
2022-11-02T05:38:51.530Z,84.11
2022-11-02T05:39:51.843Z,84.11
2022-11-02T05:40:52.169Z,84.11
2022-11-02T05:41:52.481Z,84.11
2022-11-02T05:42:52.829Z,84.20
2022-11-02T05:43:53.100Z,84.20
2022-11-02T05:44:53.381Z,84.41
2022-11-02T05:45:54.621Z,84.61
2022-11-02T05:46:54.069Z,84.72
2022-11-02T05:47:54.259Z,84.82
2022-11-02T05:48:54.579Z,84.61
2022-11-02T05:49:54.915Z,84.72
2022-11-02T05:50:55.158Z,84.82
2022-11-02T05:51:55.421Z,84.92
2022-11-02T05:52:55.711Z,85.16
2022-11-02T05:53:55.949Z,85.37
2022-11-02T05:54:56.321Z,85.47
2022-11-02T05:55:56.501Z,85.57
2022-11-02T05:56:56.741Z,85.57
2022-11-02T05:57:57.159Z,85.68
2022-11-02T05:58:57.348Z,85.77
2022-11-02T05:59:58.527Z,85.77
2022-11-02T06:00:57.945Z,85.77
2022-11-02T06:01:58.332Z,85.74
2022-11-02T06:02:58.415Z,85.77
2022-11-02T06:03:58.649Z,85.77
2022-11-02T06:04:59.051Z,85.74
2022-11-02T06:05:59.298Z,85.74
2022-11-02T06:06:59.490Z,85.74
2022-11-02T06:07:59.735Z,85.74
2022-11-02T06:09:04.344Z,85.74
2022-11-02T06:10:01.295Z,85.74
2022-11-02T06:11:00.582Z,85.63
2022-11-02T06:12:00.849Z,85.53
2022-11-02T06:13:01.282Z,85.53
2022-11-02T06:14:01.445Z,85.63
2022-11-02T06:15:01.681Z,85.43
2022-11-02T06:16:01.930Z,85.53
2022-11-02T06:17:02.156Z,85.43
2022-11-02T06:18:02.517Z,85.43
2022-11-02T06:19:02.885Z,85.43
2022-11-02T06:20:03.050Z,85.33
2022-11-02T06:21:03.330Z,85.33
2022-11-02T06:22:03.536Z,85.53
2022-11-02T06:23:04.204Z,85.84
2022-11-02T06:24:04.103Z,85.84
2022-11-02T06:25:04.364Z,85.84
2022-11-02T06:26:04.643Z,85.74
2022-11-02T06:27:04.867Z,85.63
2022-11-02T06:28:05.213Z,85.63
2022-11-02T06:29:05.565Z,85.53
2022-11-02T06:30:05.878Z,85.63
2022-11-02T06:31:06.087Z,85.53
2022-11-02T06:32:06.376Z,85.53
2022-11-02T06:33:07.400Z,85.33
2022-11-02T06:34:06.831Z,85.33
2022-11-02T06:35:07.108Z,85.33
2022-11-02T06:36:07.363Z,84.88
2022-11-02T06:37:07.574Z,84.78
2022-11-02T06:38:07.957Z,84.47
2022-11-02T06:39:08.216Z,84.67
2022-11-02T06:40:08.456Z,84.58
2022-11-02T06:41:08.739Z,84.78
2022-11-02T06:42:09.026Z,84.58
2022-11-02T06:43:17.685Z,84.58
2022-11-02T06:44:10.569Z,84.47
2022-11-02T06:45:09.831Z,84.58
2022-11-02T06:46:10.094Z,84.47
2022-11-02T06:47:10.362Z,84.37
2022-11-02T06:48:10.600Z,84.27
2022-11-02T06:49:10.846Z,84.17
2022-11-02T06:50:11.065Z,84.27
2022-11-02T06:51:11.296Z,84.37
2022-11-02T06:52:11.550Z,84.47
2022-11-02T06:53:11.834Z,84.17
2022-11-02T06:54:12.081Z,84.17
2022-11-02T06:55:12.328Z,84.27
2022-11-02T06:56:12.558Z,84.58
2022-11-02T06:57:12.818Z,84.47
2022-11-02T06:58:13.055Z,84.37
2022-11-02T06:59:13.298Z,84.27
2022-11-02T07:00:15.451Z,84.37
2022-11-02T07:01:14.068Z,84.37
2022-11-02T07:02:14.110Z,84.67
2022-11-02T07:03:14.339Z,84.67
2022-11-02T07:04:14.620Z,84.88
2022-11-02T07:05:14.855Z,85.02
2022-11-02T07:06:15.130Z,85.33
2022-11-02T07:07:15.370Z,85.43
2022-11-02T07:08:15.644Z,85.63
2022-11-02T07:09:15.902Z,85.74
2022-11-02T07:10:16.176Z,85.74
2022-11-02T07:11:16.440Z,85.63
2022-11-02T07:12:20.534Z,85.63
2022-11-02T07:13:17.934Z,85.63
2022-11-02T07:14:17.229Z,85.43
2022-11-02T07:15:17.450Z,85.33
2022-11-02T07:16:17.689Z,85.19
2022-11-02T07:17:17.950Z,85.22
2022-11-02T07:18:18.244Z,85.53
2022-11-02T07:19:18.485Z,85.74
2022-11-02T07:20:18.735Z,85.94
2022-11-02T07:22:19.293Z,85.74
2022-11-02T07:23:19.508Z,85.63
2022-11-02T07:24:19.815Z,85.63
2022-11-02T07:25:20.047Z,85.53
2022-11-02T07:26:20.379Z,85.84
2022-11-02T07:27:20.638Z,85.84
2022-11-02T07:28:20.845Z,85.84
2022-11-02T07:29:21.093Z,85.74
2022-11-02T07:30:21.404Z,85.53
2022-11-02T07:31:21.652Z,85.43
2022-11-02T07:32:21.997Z,85.43
2022-11-02T07:33:22.224Z,85.13
2022-11-02T07:34:22.504Z,85.08
2022-11-02T07:35:22.820Z,84.88
2022-11-02T07:36:23.048Z,84.67
2022-11-02T07:37:23.351Z,84.67
2022-11-02T07:38:23.571Z,84.27
2022-11-02T07:39:23.800Z,84.03
2022-11-02T07:40:24.144Z,83.82
2022-11-02T07:41:24.334Z,83.42
2022-11-02T07:42:24.601Z,83.21
2022-11-02T07:43:24.840Z,82.80
2022-11-02T07:44:25.127Z,82.60
2022-11-02T07:45:25.382Z,82.56
2022-11-02T07:46:25.607Z,82.05
2022-11-02T07:47:25.883Z,81.74
2022-11-02T07:48:26.133Z,81.65
2022-11-02T07:49:26.383Z,81.24
2022-11-02T07:50:26.691Z,81.40
2022-11-02T07:51:26.936Z,81.20
2022-11-02T07:52:27.194Z,80.69
2022-11-02T07:53:27.501Z,80.49
2022-11-02T07:54:27.742Z,80.55
2022-11-02T07:55:27.994Z,80.15
2022-11-02T07:56:28.256Z,79.74
2022-11-02T07:57:28.507Z,79.63
2022-11-02T07:58:28.784Z,79.84
2022-11-02T07:59:29.082Z,79.74
2022-11-02T08:00:29.293Z,79.63
2022-11-02T08:01:29.635Z,79.43
2022-11-02T08:02:29.882Z,79.33
2022-11-02T08:03:30.133Z,79.09
2022-11-02T08:04:30.399Z,78.78
2022-11-02T08:05:30.574Z,78.28
2022-11-02T08:06:30.882Z,78.08
2022-11-02T08:07:31.104Z,77.87
2022-11-02T08:08:31.334Z,77.87
2022-11-02T08:09:31.689Z,77.77
2022-11-02T08:10:35.431Z,77.67
2022-11-02T08:11:33.222Z,77.43
2022-11-02T08:12:32.468Z,77.22
2022-11-02T08:13:33.050Z,77.22
2022-11-02T08:14:33.093Z,77.02
2022-11-02T08:15:33.311Z,76.92
2022-11-02T08:16:33.530Z,76.68
2022-11-02T08:17:33.888Z,76.31
2022-11-02T08:18:34.116Z,76.37
2022-11-02T08:19:34.378Z,76.48
2022-11-02T08:20:34.628Z,76.07
2022-11-02T08:21:34.907Z,76.28
2022-11-02T08:22:35.203Z,76.17
2022-11-02T08:23:35.409Z,75.76
2022-11-02T08:24:36.127Z,76.07
2022-11-02T08:25:36.002Z,75.87
2022-11-02T08:26:36.999Z,75.97
2022-11-02T08:27:36.518Z,75.56
2022-11-02T08:28:36.766Z,75.76
2022-11-02T08:29:37.046Z,75.43
2022-11-02T08:30:37.292Z,75.32
2022-11-02T08:31:37.550Z,74.92
2022-11-02T08:32:37.860Z,74.92
2022-11-02T08:33:38.058Z,74.71
2022-11-02T08:34:38.345Z,74.51
2022-11-02T08:35:38.616Z,74.41
2022-11-02T08:36:38.886Z,74.41
2022-11-02T08:37:39.120Z,74.07
2022-11-02T08:38:39.366Z,74.17
2022-11-02T08:39:39.600Z,74.07
2022-11-02T08:40:39.861Z,73.77
2022-11-02T08:41:40.124Z,73.77
2022-11-02T08:42:40.410Z,73.63
2022-11-02T08:43:40.639Z,73.57
2022-11-02T08:44:42.761Z,73.63
2022-11-02T08:46:42.453Z,73.53
2022-11-02T08:47:41.698Z,73.22
2022-11-02T08:48:41.955Z,73.22
2022-11-02T08:49:42.227Z,73.26
2022-11-02T08:50:42.539Z,73.87
2022-11-02T08:51:42.780Z,74.07
2022-11-02T08:52:43.006Z,73.83
2022-11-02T08:53:48.576Z,73.53
2022-11-02T08:54:44.518Z,73.33
2022-11-02T08:55:43.785Z,73.66
2022-11-02T08:56:44.001Z,74.07
2022-11-02T08:57:44.345Z,73.83
2022-11-02T08:58:44.687Z,73.33
2022-11-02T08:59:44.883Z,73.22
2022-11-02T09:00:45.151Z,73.43
2022-11-02T09:01:45.534Z,73.22
2022-11-02T09:02:45.689Z,73.22
2022-11-02T09:03:45.892Z,73.12
2022-11-02T09:04:46.143Z,73.33
2022-11-02T09:05:46.413Z,72.92
2022-11-02T09:06:46.686Z,72.72
2022-11-02T09:07:46.972Z,72.38
2022-11-02T09:08:47.295Z,71.97
2022-11-02T09:09:47.522Z,71.47
2022-11-02T09:10:47.789Z,71.16
2022-11-02T09:11:48.019Z,71.03
2022-11-02T09:12:48.302Z,70.62
2022-11-02T09:13:52.819Z,70.32
2022-11-02T09:14:49.863Z,69.07
2022-11-02T09:15:49.176Z,68.26
2022-11-02T09:16:49.458Z,68.26
2022-11-02T09:17:49.728Z,67.65
2022-11-02T09:18:50.001Z,67.35
2022-11-02T09:19:50.258Z,67.25
2022-11-02T09:20:50.503Z,67.25
2022-11-02T09:21:50.748Z,67.45
2022-11-02T09:22:50.984Z,67.48
2022-11-02T09:23:51.250Z,67.48
2022-11-02T09:24:51.508Z,67.58
2022-11-02T09:25:51.896Z,67.48
2022-11-02T09:26:52.108Z,67.58
2022-11-02T09:27:55.398Z,67.38
2022-11-02T09:28:52.616Z,66.88
2022-11-02T09:29:52.912Z,66.77
2022-11-02T09:30:53.129Z,67.08
2022-11-02T09:31:53.415Z,66.84
2022-11-02T09:32:53.671Z,66.44
2022-11-02T09:33:53.916Z,66.57
2022-11-02T09:34:54.199Z,66.97
2022-11-02T09:35:54.435Z,67.05
2022-11-02T09:36:54.694Z,66.44
2022-11-02T09:37:54.934Z,66.54
2022-11-02T09:38:55.186Z,66.54
2022-11-02T09:39:55.475Z,66.03
2022-11-02T09:40:55.760Z,65.53
2022-11-02T09:41:55.995Z,65.56
2022-11-02T09:42:56.263Z,65.76
2022-11-02T09:43:56.529Z,65.83
2022-11-02T09:44:56.801Z,65.73
2022-11-02T09:45:57.102Z,65.42
2022-11-02T09:47:39.761Z,65.32
2022-11-02T09:48:28.956Z,65.45
2022-11-02T09:48:59.033Z,65.42
2022-11-02T09:49:58.247Z,65.32
2022-11-02T09:51:01.981Z,65.22
2022-11-02T09:51:58.744Z,65.32
2022-11-02T09:52:58.970Z,64.92
2022-11-02T09:53:59.222Z,64.85
2022-11-02T09:54:59.594Z,64.92
2022-11-02T09:55:59.759Z,65.02
2022-11-02T09:57:00.003Z,64.51
2022-11-02T09:58:00.259Z,63.67
2022-11-02T09:59:00.506Z,64.01
2022-11-02T10:00:00.758Z,64.01
2022-11-02T10:01:02.054Z,64.01
2022-11-02T10:02:01.673Z,64.11
2022-11-02T10:03:01.600Z,63.87
2022-11-02T10:04:01.855Z,63.78
2022-11-02T10:05:02.099Z,63.64
2022-11-02T10:06:02.431Z,63.24
2022-11-02T10:07:02.709Z,63.13
2022-11-02T10:08:03.409Z,62.81
2022-11-02T10:09:03.253Z,62.33
2022-11-02T10:10:03.485Z,62.53
2022-11-02T10:11:07.926Z,62.63
2022-11-02T10:12:03.999Z,62.70
2022-11-02T10:13:04.663Z,62.50
2022-11-02T10:14:04.561Z,61.99
2022-11-02T10:15:04.913Z,61.56
2022-11-02T10:16:05.117Z,60.65
2022-11-02T10:17:05.395Z,59.64
2022-11-02T10:18:05.648Z,59.34
2022-11-02T10:19:05.972Z,59.34
2022-11-02T10:20:06.229Z,59.31
2022-11-02T10:21:06.530Z,58.37
2022-11-02T10:22:06.798Z,57.46
2022-11-02T10:23:07.483Z,57.16
2022-11-02T10:24:07.828Z,57.56
2022-11-02T10:25:07.625Z,57.16
2022-11-02T10:26:07.843Z,57.76
2022-11-02T10:27:13.831Z,57.67
2022-11-02T10:28:09.440Z,57.34
2022-11-02T10:29:08.727Z,57.03
2022-11-02T10:30:08.943Z,56.90
2022-11-02T10:31:14.527Z,57.01
2022-11-02T10:32:10.494Z,56.30
2022-11-02T10:33:09.785Z,56.30
2022-11-02T10:34:10.063Z,55.99
2022-11-02T10:35:30.052Z,55.77
2022-11-02T10:36:18.076Z,55.49
2022-11-02T10:37:11.989Z,55.49
2022-11-02T10:38:14.995Z,55.19
2022-11-02T10:39:11.583Z,55.06
2022-11-02T10:40:11.840Z,54.21
2022-11-02T10:41:12.147Z,53.05
2022-11-02T10:42:12.365Z,52.44
2022-11-02T10:43:12.653Z,53.07
2022-11-02T10:44:12.994Z,54.63
2022-11-02T10:45:13.189Z,55.36
2022-11-02T10:46:13.449Z,56.32
2022-11-02T10:47:13.758Z,57.14
2022-11-02T10:48:14.533Z,57.36
2022-11-02T10:49:14.306Z,57.16
2022-11-02T10:50:14.588Z,57.26
2022-11-02T10:51:14.866Z,57.89
2022-11-02T10:52:15.183Z,58.09
2022-11-02T10:53:39.665Z,58.27
2022-11-02T10:54:20.522Z,57.97
2022-11-02T10:55:16.945Z,57.97
2022-11-02T10:56:16.222Z,57.54
2022-11-02T10:57:16.552Z,57.10
2022-11-02T10:58:16.812Z,57.31
2022-11-02T10:59:17.067Z,57.43
2022-11-02T11:00:17.342Z,57.43
2022-11-02T11:01:17.749Z,57.41
2022-11-02T11:02:17.876Z,57.23
2022-11-02T11:03:18.133Z,58.07
2022-11-02T11:04:18.401Z,58.07
2022-11-02T11:05:18.646Z,58.17
2022-11-02T11:06:18.990Z,57.54
2022-11-02T11:07:19.298Z,57.54
2022-11-02T11:08:19.527Z,57.54
2022-11-02T11:09:19.777Z,57.14
2022-11-02T11:10:20.032Z,56.93
2022-11-02T11:11:20.306Z,56.63
2022-11-02T11:12:20.603Z,56.40
2022-11-02T11:16:25.577Z,51.97
2022-11-02T11:19:39.988Z,52.11
2022-11-02T11:20:23.941Z,51.81
2022-11-02T11:21:23.201Z,51.31
2022-11-02T11:22:23.580Z,51.61
2022-11-02T11:23:23.713Z,51.81
2022-11-02T11:24:24.031Z,51.61
2022-11-02T11:25:27.555Z,51.39
2022-11-02T11:26:24.563Z,51.16
2022-11-02T11:27:25.051Z,50.09
2022-11-02T11:28:25.212Z,48.53
2022-11-02T11:29:25.459Z,46.76
2022-11-02T11:30:53.982Z,46.36
2022-11-02T11:31:27.021Z,45.94
2022-11-02T11:32:30.215Z,45.43
2022-11-02T11:33:26.568Z,45.74
2022-11-02T11:34:26.874Z,46.18
2022-11-02T11:35:27.175Z,46.41
2022-11-02T11:36:27.903Z,47.38
2022-11-02T11:37:27.715Z,48.83
2022-11-02T11:38:27.971Z,49.33
2022-11-02T11:39:28.250Z,49.35
2022-11-02T11:40:28.484Z,49.88
2022-11-02T11:41:28.782Z,50.20
2022-11-02T11:42:29.045Z,50.71
2022-11-02T11:43:29.278Z,49.45
2022-11-02T11:44:29.494Z,48.08
2022-11-02T11:45:29.739Z,46.70
2022-11-02T11:46:30.009Z,45.46
2022-11-02T11:47:30.292Z,44.84
2022-11-02T11:48:30.616Z,43.41
2022-11-02T11:49:48.148Z,42.63
2022-11-02T11:50:32.180Z,43.60
2022-11-02T11:51:31.490Z,44.08
2022-11-02T11:52:32.564Z,43.38
2022-11-02T11:53:32.004Z,43.50
2022-11-02T11:54:32.321Z,44.32
2022-11-02T11:55:32.727Z,44.44
2022-11-02T11:56:32.909Z,44.28
2022-11-02T11:57:33.210Z,45.94
2022-11-02T11:58:33.421Z,46.78
2022-11-02T11:59:33.708Z,47.11
2022-11-02T12:00:34.009Z,47.15
2022-11-02T12:01:34.343Z,47.98
2022-11-02T12:02:39.366Z,49.11
2022-11-02T12:03:35.864Z,49.31
2022-11-02T12:04:35.127Z,49.79
2022-11-02T12:05:35.375Z,49.59
2022-11-02T12:06:35.659Z,49.57
2022-11-02T12:07:35.902Z,49.57
2022-11-02T12:08:36.169Z,48.94
2022-11-02T12:09:36.431Z,47.89
2022-11-02T12:10:36.697Z,46.84
2022-11-02T12:11:36.991Z,46.01
2022-11-02T12:12:37.317Z,45.59
2022-11-02T12:13:37.559Z,44.84
2022-11-02T12:14:37.888Z,44.52
2022-11-02T12:15:38.088Z,44.30
2022-11-02T12:16:38.331Z,43.98
2022-11-02T12:17:38.579Z,43.27
2022-11-02T12:18:38.859Z,42.97
2022-11-02T12:19:39.210Z,42.99
2022-11-02T12:20:39.405Z,43.38
2022-11-02T12:21:39.668Z,43.38
2022-11-02T12:22:40.063Z,43.27
2022-11-02T12:23:40.168Z,43.26
2022-11-02T12:24:40.497Z,42.13
2022-11-02T12:25:40.694Z,41.63
2022-11-02T12:26:40.950Z,42.25
2022-11-02T12:27:41.194Z,42.25
2022-11-02T12:28:41.496Z,42.35
2022-11-02T12:29:41.804Z,42.25
2022-11-02T12:30:42.057Z,42.13
2022-11-02T12:31:42.327Z,42.21
2022-11-02T12:32:42.584Z,41.93
2022-11-02T12:33:42.924Z,41.96
2022-11-02T12:34:44.501Z,42.80
2022-11-02T12:35:43.392Z,42.80
2022-11-02T12:37:10.313Z,42.80
2022-11-02T12:37:45.012Z,42.49
2022-11-02T12:38:44.137Z,42.80
2022-11-02T12:39:44.596Z,42.68
2022-11-02T12:40:44.772Z,42.47
2022-11-02T12:41:45.176Z,42.07
2022-11-02T12:42:45.424Z,42.27
2022-11-02T12:43:45.716Z,42.18
2022-11-02T12:44:46.012Z,42.47
2022-11-02T12:45:46.232Z,42.77
2022-11-02T12:46:49.143Z,43.30
2022-11-02T12:47:46.766Z,43.10
2022-11-02T12:48:47.048Z,42.80
2022-11-02T12:49:47.285Z,43.12
2022-11-02T12:50:47.526Z,42.91
2022-11-02T12:51:47.814Z,43.32
2022-11-02T12:52:48.040Z,43.32
2022-11-02T12:53:48.278Z,43.22
2022-11-02T12:54:48.547Z,43.30
2022-11-02T12:55:48.803Z,43.38
2022-11-02T12:56:49.066Z,43.08
2022-11-02T12:57:49.365Z,43.30
2022-11-02T12:58:49.626Z,43.54
2022-11-02T12:59:49.958Z,44.14
2022-11-02T13:00:50.211Z,44.04
2022-11-02T13:01:50.766Z,43.84
2022-11-02T13:02:50.779Z,43.54
2022-11-02T13:03:51.064Z,43.94